Time;durP1;ratioP1;P1;durP2;ratioP2;P2;SDS_P1;SDS_P2;PMS_P1;PMS_P2;Temp;Humidity;BMP_temperature;BMP_pressure;BME280_temperature;BME280_humidity;BME280_pressure;Samples;Min_cycle;Max_cycle;Signal;HPM_P1;HPM_P2
2022/06/28 00:01:37;;;;;;;;;;;;;;;12.79;52.43;96034.41;5041969;28;20000;-62
2022/06/28 00:04:02;;;;;;;;;;;;;;;12.57;53.31;96041.47;5041718;28;20481;-63
2022/06/28 00:06:28;;;;;;;;;;;;;;;12.73;53.24;96045.84;5044408;28;20376;-62
2022/06/28 00:08:53;;;;;;;;;;;;;;;12.58;53.32;96044.97;5045851;28;19977;-63
2022/06/28 00:11:18;;;;;;;;;;;;;;;12.19;54.37;96041.41;5045938;28;20054;-63
2022/06/28 00:13:43;;;;;;;;;;;;;;;12.08;54.43;96040.84;5045374;28;19973;-62
2022/06/28 00:16:14;;;;;;;;;;;;;;;11.62;54.98;96033.56;5046759;28;19961;-64
2022/06/28 00:18:40;;;;;;;;;;;;;;;11.21;56.46;96042.56;5046770;28;19993;-65
2022/06/28 00:21:08;;;;;;;;;;;;;;;11.37;55.75;96045.19;5044110;28;20024;-62
2022/06/28 00:23:34;;;;;;;;;;;;;;;11.25;55.68;96043.88;5040061;28;20039;-62
2022/06/28 00:25:59;;;;;;;;;;;;;;;11.16;55.77;96039.59;5045183;28;19993;-63
2022/06/28 00:28:24;;;;;;;;;;;;;;;11.19;55.99;96044.56;5045919;28;20019;-63
2022/06/28 00:30:49;;;;;;;;;;;;;;;11.11;55.70;96037.41;5045195;28;19996;-63
2022/06/28 00:33:15;;;;;;;;;;;;;;;11.13;56.05;96044.25;5045942;28;19971;-62
2022/06/28 00:35:40;;;;;;;;;;;;;;;11.27;55.92;96044.53;5045338;28;20041;-63
2022/06/28 00:38:05;;;;;;;;;;;;;;;11.21;56.14;96047.88;5045306;28;19997;-62
2022/06/28 00:40:31;;;;;;;;;;;;;;;11.49;55.51;96048.28;5045977;28;20088;-63
2022/06/28 00:42:56;;;;;;;;;;;;;;;11.59;55.58;96048.06;5043224;28;20431;-63
2022/06/28 00:45:21;;;;;;;;;;;;;;;11.45;55.64;96048.78;5045520;28;20063;-63
2022/06/28 00:47:47;;;;;;;;;;;;;;;11.74;54.92;96047.34;5045055;28;20047;-63
2022/06/28 00:50:12;;;;;;;;;;;;;;;11.75;54.76;96051.66;5045062;28;20004;-63
2022/06/28 00:52:57;;;;;;;;;;;;;;;11.68;54.57;96048.88;5045094;28;20512;-63
2022/06/28 00:55:22;;;;;;;;;;;;;;;11.55;54.94;96059.25;5044794;28;19992;-63
2022/06/28 00:57:47;;;;;;;;;;;;;;;11.72;54.36;96057.34;5045036;28;19989;-63
2022/06/28 01:00:13;;;;;;;;;;;;;;;11.74;54.35;96069.53;5044649;28;19984;-63
2022/06/28 01:02:38;;;;;;;;;;;;;;;11.43;54.33;96074.81;5044767;28;20474;-63
2022/06/28 01:05:03;;;;;;;;;;;;;;;11.49;54.33;96071.47;5045018;28;20394;-63
2022/06/28 01:07:29;;;;;;;;;;;;;;;11.40;54.30;96081.31;5044500;28;20300;-63
2022/06/28 01:09:54;;;;;;;;;;;;;;;11.26;54.63;96083.69;5043314;28;19985;-63
2022/06/28 01:12:19;;;;;;;;;;;;;;;11.51;54.33;96088.09;5044339;28;20592;-64
2022/06/28 01:14:44;;;;;;;;;;;;;;;11.57;53.94;96092.75;5044761;28;19993;-63
2022/06/28 01:17:10;;;;;;;;;;;;;;;11.23;53.03;96100.03;5055523;28;20289;-65
2022/06/28 01:19:35;;;;;;;;;;;;;;;11.24;53.45;96099.03;5044634;28;20477;-63
2022/06/28 01:22:01;;;;;;;;;;;;;;;11.45;53.22;96102.13;5043783;28;20015;-63
2022/06/28 01:24:26;;;;;;;;;;;;;;;11.50;51.57;96103.25;5043255;28;19973;-63
2022/06/28 01:26:51;;;;;;;;;;;;;;;11.57;51.51;96102.59;5044371;28;19985;-63
2022/06/28 01:29:16;;;;;;;;;;;;;;;11.62;51.84;96102.88;5044567;28;20019;-63
2022/06/28 01:31:42;;;;;;;;;;;;;;;11.65;51.70;96097.22;5043798;28;19992;-63
2022/06/28 01:34:07;;;;;;;;;;;;;;;11.59;50.37;96100.59;5044228;28;20318;-63
2022/06/28 01:36:32;;;;;;;;;;;;;;;11.56;50.34;96099.06;5042475;28;19968;-63
2022/06/28 01:38:58;;;;;;;;;;;;;;;11.54;49.47;96102.94;5044301;28;19993;-63
2022/06/28 01:41:32;;;;;;;;;;;;;;;11.46;48.92;96099.28;5044127;28;20031;-63
2022/06/28 01:43:58;;;;;;;;;;;;;;;11.38;48.39;96097.50;5044270;28;19992;-63
2022/06/28 01:46:23;;;;;;;;;;;;;;;11.34;48.28;96100.66;5042361;28;19996;-63
2022/06/28 01:48:48;;;;;;;;;;;;;;;11.26;48.31;96101.53;5043426;28;19969;-63
2022/06/28 01:51:13;;;;;;;;;;;;;;;11.20;48.29;96086.19;5043393;28;20506;-63
2022/06/28 01:53:38;;;;;;;;;;;;;;;11.10;47.37;96095.22;5044528;28;20465;-63
2022/06/28 01:56:04;;;;;;;;;;;;;;;11.04;47.72;96098.53;5044245;28;19988;-63
2022/06/28 01:58:29;;;;;;;;;;;;;;;11.03;48.36;96099.53;5043952;28;19997;-63
2022/06/28 02:00:54;;;;;;;;;;;;;;;11.03;48.60;96099.53;5042579;28;20566;-63
2022/06/28 02:03:20;;;;;;;;;;;;;;;11.02;49.02;96100.53;5042118;28;20568;-63
2022/06/28 02:05:45;;;;;;;;;;;;;;;10.95;48.51;96103.03;5043619;28;19992;-63
2022/06/28 02:08:10;;;;;;;;;;;;;;;10.81;47.95;96106.41;5043375;28;20085;-63
2022/06/28 02:10:35;;;;;;;;;;;;;;;10.72;47.64;96102.91;5043053;28;20088;-63
2022/06/28 02:13:00;;;;;;;;;;;;;;;10.60;47.35;96100.56;5044169;28;20032;-63
2022/06/28 02:15:26;;;;;;;;;;;;;;;10.55;47.51;96094.06;5043005;28;20508;-63
2022/06/28 02:17:51;;;;;;;;;;;;;;;10.49;47.68;96099.06;5043872;28;20434;-64
2022/06/28 02:20:16;;;;;;;;;;;;;;;10.41;47.36;96096.41;5042897;28;20377;-63
2022/06/28 02:22:41;;;;;;;;;;;;;;;10.35;47.65;96091.72;5042996;28;20000;-63
2022/06/28 02:25:07;;;;;;;;;;;;;;;10.36;47.67;96104.03;5043574;28;19967;-63
2022/06/28 02:27:32;;;;;;;;;;;;;;;10.35;47.71;96102.38;5043608;28;20028;-63
2022/06/28 02:29:57;;;;;;;;;;;;;;;10.31;47.35;96101.88;5043218;28;20080;-63
2022/06/28 02:32:23;;;;;;;;;;;;;;;10.23;47.03;96109.84;5043889;28;19992;-63
2022/06/28 02:40:21;;;;;;;;;;;;;;;10.07;47.80;96110.66;5043027;28;20043;-64
2022/06/28 02:42:47;;;;;;;;;;;;;;;10.02;48.14;96102.28;5042873;28;20466;-63
2022/06/28 02:45:12;;;;;;;;;;;;;;;10.00;48.05;96101.63;5043450;28;19985;-63
2022/06/28 02:47:38;;;;;;;;;;;;;;;9.98;48.33;96112.41;5043091;28;20046;-63
2022/06/28 02:50:03;;;;;;;;;;;;;;;9.88;48.24;96106.41;5042531;28;19989;-63
2022/06/28 02:52:28;;;;;;;;;;;;;;;9.80;47.71;96108.03;5043425;28;20489;-63
2022/06/28 02:54:54;;;;;;;;;;;;;;;9.77;47.50;96112.84;5042600;28;20088;-63
2022/06/28 02:57:19;;;;;;;;;;;;;;;9.83;47.50;96118.34;5043235;28;19976;-64
2022/06/28 02:59:44;;;;;;;;;;;;;;;9.82;47.25;96119.34;5042511;28;19989;-63
2022/06/28 03:02:09;;;;;;;;;;;;;;;9.83;47.25;96121.00;5042093;28;19996;-63
2022/06/28 03:04:34;;;;;;;;;;;;;;;9.73;46.82;96120.31;5043888;28;19969;-63
2022/06/28 03:07:00;;;;;;;;;;;;;;;9.67;46.91;96134.25;5042064;28;19993;-63
2022/06/28 03:09:25;;;;;;;;;;;;;;;9.62;47.02;96125.94;5042611;28;20345;-63
2022/06/28 03:11:50;;;;;;;;;;;;;;;9.59;47.52;96135.88;5042705;28;20001;-63
2022/06/28 03:14:15;;;;;;;;;;;;;;;9.62;47.30;96141.88;5042481;28;20270;-63
2022/06/28 03:16:41;;;;;;;;;;;;;;;9.55;47.05;96139.84;5042448;28;20277;-63
2022/06/28 03:19:06;;;;;;;;;;;;;;;9.51;46.81;96135.00;5042692;28;19993;-63
2022/06/28 03:21:31;;;;;;;;;;;;;;;9.50;46.99;96133.34;5042387;28;20001;-63
2022/06/28 03:23:56;;;;;;;;;;;;;;;9.52;47.39;96139.34;5042594;28;20018;-63
2022/06/28 03:26:22;;;;;;;;;;;;;;;9.53;47.14;96147.16;5042259;28;20099;-63
2022/06/28 03:28:47;;;;;;;;;;;;;;;9.51;47.13;96142.97;5042903;28;20735;-64
2022/06/28 03:31:12;;;;;;;;;;;;;;;9.46;46.50;96146.13;5042480;28;19993;-63
2022/06/28 03:33:38;;;;;;;;;;;;;;;9.46;47.27;96146.13;5042271;28;19969;-63
2022/06/28 03:36:03;;;;;;;;;;;;;;;9.51;47.42;96143.81;5042593;28;20008;-63
2022/06/28 03:38:28;;;;;;;;;;;;;;;9.62;47.70;96155.97;5042231;28;20034;-63
2022/06/28 03:40:54;;;;;;;;;;;;;;;9.63;48.19;96154.16;5044217;28;19985;-63
2022/06/28 03:43:19;;;;;;;;;;;;;;;9.63;48.01;96154.16;5046425;28;19997;-64
2022/06/28 03:45:44;;;;;;;;;;;;;;;9.69;48.00;96153.53;5045992;28;19968;-63
2022/06/28 03:48:10;;;;;;;;;;;;;;;9.72;47.69;96153.19;5046515;28;20216;-64
2022/06/28 03:50:35;;;;;;;;;;;;;;;9.74;47.49;96153.88;5046060;28;20468;-63
2022/06/28 03:53:00;;;;;;;;;;;;;;;9.77;47.61;96150.06;5046625;28;19984;-64
2022/06/28 03:55:25;;;;;;;;;;;;;;;9.82;47.29;96153.91;5045853;28;19981;-63
2022/06/28 03:57:51;;;;;;;;;;;;;;;9.84;47.48;96149.28;5046596;28;19989;-63
2022/06/28 04:00:16;;;;;;;;;;;;;;;9.85;47.61;96150.94;5035636;28;19985;-63
2022/06/28 04:02:41;;;;;;;;;;;;;;;9.91;47.34;96146.81;5045323;28;19992;-63
2022/06/28 04:05:06;;;;;;;;;;;;;;;9.91;46.77;96152.13;5046145;28;20062;-63
2022/06/28 04:07:32;;;;;;;;;;;;;;;9.92;46.72;96153.78;5045753;28;20046;-63
2022/06/28 04:09:57;;;;;;;;;;;;;;;9.96;47.15;96156.94;5045537;28;19989;-64
2022/06/28 04:12:22;;;;;;;;;;;;;;;10.03;46.83;96157.97;5046078;28;20060;-63
2022/06/28 04:14:47;;;;;;;;;;;;;;;10.10;46.68;96150.25;5044875;28;19993;-64
2022/06/28 04:17:13;;;;;;;;;;;;;;;10.16;46.65;96149.56;5046053;28;19979;-64
2022/06/28 04:19:39;;;;;;;;;;;;;;;10.21;46.69;96154.41;5046612;28;20028;-64
2022/06/28 04:22:04;;;;;;;;;;;;;;;10.21;46.11;96146.44;5046400;28;20001;-64
2022/06/28 04:24:29;;;;;;;;;;;;;;;10.27;46.52;96148.44;5045601;28;20421;-64
2022/06/28 04:26:54;;;;;;;;;;;;;;;10.42;46.55;96156.63;5045609;28;20000;-63
2022/06/28 04:29:20;;;;;;;;;;;;;;;10.57;46.70;96156.81;5045764;28;20159;-63
2022/06/28 04:31:45;;;;;;;;;;;;;;;10.64;46.78;96154.31;5045062;28;20023;-64
2022/06/28 04:34:10;;;;;;;;;;;;;;;10.70;46.70;96148.31;5044985;28;20019;-64
2022/06/28 04:36:35;;;;;;;;;;;;;;;10.82;46.72;96156.00;5045528;28;19984;-64
2022/06/28 04:39:00;;;;;;;;;;;;;;;10.85;46.73;96156.47;5045201;28;20449;-64
2022/06/28 04:41:26;;;;;;;;;;;;;;;10.95;46.75;96153.66;5045544;28;20035;-63
2022/06/28 04:43:53;;;;;;;;;;;;;;;10.99;47.04;96159.50;5044928;28;20069;-64
2022/06/28 04:46:18;;;;;;;;;;;;;;;11.06;47.26;96152.50;5045068;28;19997;-63
2022/06/28 04:48:43;;;;;;;;;;;;;;;11.16;47.46;96154.16;5045657;28;19985;-63
2022/06/28 04:51:12;;;;;;;;;;;;;;;11.35;47.27;96158.28;5043139;28;19998;-63
2022/06/28 04:53:38;;;;;;;;;;;;;;;11.54;47.56;96157.09;5043618;28;19969;-63
2022/06/28 04:56:03;;;;;;;;;;;;;;;11.70;47.39;96153.53;5044928;28;19969;-58
2022/06/28 04:58:29;;;;;;;;;;;;;;;11.79;47.17;96157.00;5045010;28;20101;-62
2022/06/28 05:00:54;;;;;;;;;;;;;;;11.88;47.60;96164.00;5045282;28;20262;-63
2022/06/28 05:03:19;;;;;;;;;;;;;;;12.03;47.40;96157.91;5044370;28;20517;-66
2022/06/28 05:05:45;;;;;;;;;;;;;;;12.24;47.54;96157.34;5044929;28;19999;-64
2022/06/28 05:08:10;;;;;;;;;;;;;;;12.38;47.66;96161.09;5044523;28;19976;-64
2022/06/28 05:10:36;;;;;;;;;;;;;;;12.54;47.63;96156.66;5044937;28;20483;-64
2022/06/28 05:13:01;;;;;;;;;;;;;;;12.70;47.77;96152.19;5044700;28;19973;-64
2022/06/28 05:15:26;;;;;;;;;;;;;;;12.88;47.31;96163.41;5043390;28;19993;-64
2022/06/28 05:17:51;;;;;;;;;;;;;;;13.02;46.57;96151.13;5044461;28;19989;-64
2022/06/28 05:20:17;;;;;;;;;;;;;;;13.11;46.46;96159.91;5044543;28;20085;-63
2022/06/28 05:22:42;;;;;;;;;;;;;;;13.29;46.41;96162.25;5044057;28;20511;-64
2022/06/28 05:25:07;;;;;;;;;;;;;;;13.37;46.07;96156.00;5044157;28;20431;-64
2022/06/28 05:27:33;;;;;;;;;;;;;;;13.49;46.11;96156.38;5043558;28;19993;-64
2022/06/28 05:29:58;;;;;;;;;;;;;;;13.66;46.28;96151.69;5044108;28;20104;-64
2022/06/28 05:32:23;;;;;;;;;;;;;;;13.87;45.63;96152.78;5044204;28;19973;-57
2022/06/28 05:34:48;;;;;;;;;;;;;;;14.05;45.37;96154.28;5043416;28;19996;-60
2022/06/28 05:37:14;;;;;;;;;;;;;;;14.23;44.81;96153.03;5043582;28;20007;-62
2022/06/28 05:39:39;;;;;;;;;;;;;;;14.40;45.07;96154.47;5044311;28;20355;-58
2022/06/28 05:42:04;;;;;;;;;;;;;;;14.58;44.72;96151.34;5043361;28;20082;-62
2022/06/28 05:44:30;;;;;;;;;;;;;;;14.84;44.09;96149.16;5041781;28;19975;-62
2022/06/28 05:46:55;;;;;;;;;;;;;;;14.97;42.54;96151.97;5045080;28;19985;-63
2022/06/28 05:49:20;;;;;;;;;;;;;;;15.09;42.81;96148.72;5052878;28;20351;-64
2022/06/28 05:51:45;;;;;;;;;;;;;;;15.23;42.16;96141.66;5042446;28;19988;-63
2022/06/28 05:54:11;;;;;;;;;;;;;;;15.29;37.86;96148.06;5039899;28;20084;-63
2022/06/28 05:56:36;;;;;;;;;;;;;;;15.31;38.22;96159.44;5043624;28;20126;-65
2022/06/28 05:59:01;;;;;;;;;;;;;;;15.46;36.49;96156.63;5046685;28;20363;-63
2022/06/28 06:01:27;;;;;;;;;;;;;;;15.09;35.40;96152.25;5045802;28;19987;-62
2022/06/28 06:03:52;;;;;;;;;;;;;;;14.73;39.50;96150.47;5043188;28;20039;-63
2022/06/28 06:06:17;;;;;;;;;;;;;;;13.87;39.76;96163.47;5039975;28;20351;-63
2022/06/28 06:08:43;;;;;;;;;;;;;;;14.99;38.14;96162.47;5038337;28;20343;-63
2022/06/28 06:11:08;;;;;;;;;;;;;;;14.68;39.69;96161.75;5040539;28;20073;-63
2022/06/28 06:13:36;;;;;;;;;;;;;;;14.93;40.43;96166.75;5043020;28;20025;-63
2022/06/28 06:16:02;;;;;;;;;;;;;;;14.87;38.57;96172.06;5039438;28;19984;-63
2022/06/28 06:18:27;;;;;;;;;;;;;;;13.73;39.89;96172.34;5042897;28;19989;-63
2022/06/28 06:20:52;;;;;;;;;;;;;;;14.54;39.84;96168.00;5042213;28;20018;-63
2022/06/28 06:23:18;;;;;;;;;;;;;;;14.52;42.26;96175.41;5042904;28;19996;-63
2022/06/28 06:25:43;;;;;;;;;;;;;;;14.54;39.88;96168.84;5042696;28;20009;-63
2022/06/28 06:28:08;;;;;;;;;;;;;;;15.10;40.48;96161.94;5042547;28;20003;-63
2022/06/28 06:30:33;;;;;;;;;;;;;;;15.33;37.78;96165.44;5039634;28;19979;-63
2022/06/28 06:32:59;;;;;;;;;;;;;;;15.73;39.53;96171.09;5043900;28;20016;-67
2022/06/28 06:35:24;;;;;;;;;;;;;;;15.65;37.43;96173.94;5043045;28;20373;-63
2022/06/28 06:37:49;;;;;;;;;;;;;;;15.21;40.99;96170.50;5040589;28;20222;-63
2022/06/28 06:40:16;;;;;;;;;;;;;;;15.32;37.89;96174.50;5049462;28;20000;-64
2022/06/28 06:42:43;;;;;;;;;;;;;;;15.93;40.45;96177.59;5057178;28;20443;-63
2022/06/28 06:45:08;;;;;;;;;;;;;;;15.85;39.40;96173.22;5041940;28;20260;-63
2022/06/28 06:47:34;;;;;;;;;;;;;;;15.64;39.71;96176.81;5061924;28;19979;-64
2022/06/28 06:50:01;;;;;;;;;;;;;;;15.22;36.87;96175.69;5041399;28;19980;-63
2022/06/28 06:52:26;;;;;;;;;;;;;;;15.75;39.46;96177.09;5048465;28;20026;-63
2022/06/28 06:54:51;;;;;;;;;;;;;;;16.10;36.62;96170.88;5042072;28;19995;-63
2022/06/28 06:57:16;;;;;;;;;;;;;;;16.44;39.11;96172.88;5039732;28;19971;-63
2022/06/28 06:59:42;;;;;;;;;;;;;;;16.72;37.39;96169.22;5041262;28;20153;-63
2022/06/28 07:02:08;;;;;;;;;;;;;;;17.22;35.64;96176.97;5039767;28;19992;-64
2022/06/28 07:04:33;;;;;;;;;;;;;;;17.65;34.96;96166.78;5040289;28;19977;-63
2022/06/28 07:07:00;;;;;;;;;;;;;;;17.75;35.12;96172.53;5039947;28;19977;-62
2022/06/28 07:09:25;;;;;;;;;;;;;;;17.69;36.23;96169.88;5038965;28;20156;-63
2022/06/28 07:11:50;;;;;;;;;;;;;;;17.49;34.89;96168.88;5036489;28;20368;-63
2022/06/28 07:14:16;;;;;;;;;;;;;;;17.60;36.33;96174.63;5035568;28;20143;-63
2022/06/28 07:16:41;;;;;;;;;;;;;;;17.45;36.29;96169.50;5037805;28;19996;-62
2022/06/28 07:19:06;;;;;;;;;;;;;;;17.33;35.90;96170.13;5036468;28;20019;-63
2022/06/28 07:21:32;;;;;;;;;;;;;;;17.04;36.25;96169.47;5040722;28;20026;-63
2022/06/28 07:23:57;;;;;;;;;;;;;;;17.83;34.46;96182.28;5039328;28;19990;-64
2022/06/28 07:26:23;;;;;;;;;;;;;;;17.74;36.26;96178.16;5035456;28;20499;-63
2022/06/28 07:28:48;;;;;;;;;;;;;;;18.06;35.41;96172.91;5038300;28;19959;-63
2022/06/28 07:31:15;;;;;;;;;;;;;;;18.05;34.96;96161.31;5036495;28;20015;-63
2022/06/28 07:33:40;;;;;;;;;;;;;;;18.15;33.05;96168.94;5038077;28;19970;-62
2022/06/28 07:36:06;;;;;;;;;;;;;;;18.04;31.95;96166.91;5034541;28;20016;-62
2022/06/28 07:38:31;;;;;;;;;;;;;;;17.97;32.44;96172.31;5040565;28;20398;-63
2022/06/28 07:40:57;;;;;;;;;;;;;;;17.95;31.94;96169.00;5035854;28;20539;-62
2022/06/28 07:43:23;;;;;;;;;;;;;;;17.72;33.09;96172.97;5037772;28;20005;-63
2022/06/28 07:45:48;;;;;;;;;;;;;;;18.09;30.60;96171.66;5036585;28;19992;-63
2022/06/28 07:48:14;;;;;;;;;;;;;;;17.80;34.65;96169.22;5037680;28;20058;-62
2022/06/28 07:53:23;;;;;;;;;;;;;;;18.18;35.76;96167.66;5038651;28;20390;-63
2022/06/28 07:55:48;;;;;;;;;;;;;;;18.25;35.18;96164.97;5037183;28;19977;-62
2022/06/28 07:58:13;;;;;;;;;;;;;;;18.19;32.62;96158.56;5038805;28;19982;-62
2022/06/28 08:00:39;;;;;;;;;;;;;;;18.50;32.31;96148.88;5040656;28;20077;-63
2022/06/28 08:03:05;;;;;;;;;;;;;;;18.94;31.62;96157.13;5036858;28;20032;-62
2022/06/28 08:05:30;;;;;;;;;;;;;;;18.69;33.50;96146.28;5038338;28;20462;-62
2022/06/28 08:07:55;;;;;;;;;;;;;;;18.98;31.77;96149.44;5037016;28;19976;-62
2022/06/28 08:10:21;;;;;;;;;;;;;;;18.83;32.36;96141.63;5036829;28;20028;-62
2022/06/28 08:12:47;;;;;;;;;;;;;;;18.87;34.33;96144.72;5033103;28;20173;-63
2022/06/28 08:15:12;;;;;;;;;;;;;;;18.91;32.64;96140.56;5038447;28;19992;-63
2022/06/28 08:17:37;;;;;;;;;;;;;;;18.92;32.41;96144.91;5037274;28;19959;-62
2022/06/28 08:20:03;;;;;;;;;;;;;;;18.37;33.63;96154.34;5036484;28;19964;-62
2022/06/28 08:22:28;;;;;;;;;;;;;;;18.05;33.82;96153.22;5036191;28;19996;-62
2022/06/28 08:24:53;;;;;;;;;;;;;;;19.07;32.28;96152.69;5039233;28;19963;-62
2022/06/28 08:27:18;;;;;;;;;;;;;;;19.33;32.09;96157.06;5038896;28;19986;-62
2022/06/28 08:29:45;;;;;;;;;;;;;;;19.67;31.67;96154.03;5039052;28;19992;-62
2022/06/28 08:32:11;;;;;;;;;;;;;;;19.46;31.98;96149.88;5042009;28;19960;-63
2022/06/28 08:34:36;;;;;;;;;;;;;;;19.06;32.15;96145.63;5041688;28;19983;-63
2022/06/28 08:37:01;;;;;;;;;;;;;;;19.30;33.55;96149.41;5041736;28;20081;-63
2022/06/28 08:39:26;;;;;;;;;;;;;;;19.05;32.25;96144.81;5042128;28;19980;-62
2022/06/28 08:41:52;;;;;;;;;;;;;;;19.59;33.46;96141.63;5040395;28;20031;-62
2022/06/28 08:44:18;;;;;;;;;;;;;;;19.75;33.14;96142.09;5038616;28;19994;-62
2022/06/28 08:46:44;;;;;;;;;;;;;;;20.36;31.77;96144.09;5039950;28;20030;-62
2022/06/28 08:49:13;;;;;;;;;;;;;;;20.60;31.27;96142.31;5034671;28;19948;-62
2022/06/28 08:51:38;;;;;;;;;;;;;;;20.93;31.14;96139.38;5039159;28;19968;-61
2022/06/28 08:54:04;;;;;;;;;;;;;;;21.04;31.02;96137.78;5039858;28;20321;-61
2022/06/28 08:56:29;;;;;;;;;;;;;;;21.38;30.15;96144.28;5048846;28;19953;-61
2022/06/28 08:59:00;;;;;;;;;;;;;;;18.95;31.87;96139.06;5040266;28;20472;-60
2022/06/28 09:01:26;;;;;;;;;;;;;;;20.51;29.05;96138.31;5038906;28;20051;-61
2022/06/28 09:03:52;;;;;;;;;;;;;;;21.33;27.02;96132.53;5039170;28;20540;-61
2022/06/28 09:06:17;;;;;;;;;;;;;;;21.84;26.24;96142.84;5040809;28;20445;-60
2022/06/28 09:08:42;;;;;;;;;;;;;;;20.77;27.72;96141.69;5037301;28;20053;-61
2022/06/28 09:11:07;;;;;;;;;;;;;;;21.46;27.17;96135.00;5045097;28;19977;-61
2022/06/28 09:13:35;;;;;;;;;;;;;;;22.01;28.12;96137.56;5040286;28;19950;-61
2022/06/28 09:16:01;;;;;;;;;;;;;;;22.13;27.50;96137.53;5039960;28;19993;-66
2022/06/28 09:18:30;;;;;;;;;;;;;;;22.25;26.22;96141.03;5032252;28;20443;-60
2022/06/28 09:20:55;;;;;;;;;;;;;;;22.37;27.22;96130.13;5038170;28;20476;-60
2022/06/28 09:23:21;;;;;;;;;;;;;;;22.58;26.97;96137.84;5039260;28;20065;-61
2022/06/28 09:25:47;;;;;;;;;;;;;;;22.33;25.96;96123.53;5037499;28;19965;-61
2022/06/28 09:28:13;;;;;;;;;;;;;;;21.82;29.19;96124.13;5029983;28;20320;-61
2022/06/28 09:30:38;;;;;;;;;;;;;;;21.81;30.00;96127.91;5037256;28;20486;-60
2022/06/28 09:33:03;;;;;;;;;;;;;;;22.28;30.16;96121.56;5039048;28;20286;-60
2022/06/28 09:35:29;;;;;;;;;;;;;;;23.05;28.57;96118.59;5033884;28;19966;-61
2022/06/28 09:37:54;;;;;;;;;;;;;;;22.53;30.09;96116.88;5038871;28;20412;-60
2022/06/28 09:40:24;;;;;;;;;;;;;;;22.92;28.93;96108.88;5038803;28;20451;-61
2022/06/28 09:43:06;;;;;;;;;;;;;;;23.27;28.48;96115.16;5037628;28;19959;-61
2022/06/28 09:45:31;;;;;;;;;;;;;;;23.76;27.22;96118.31;5033619;28;20333;-61
2022/06/28 09:47:57;;;;;;;;;;;;;;;23.51;27.54;96108.69;5038370;28;20013;-61
2022/06/28 09:50:23;;;;;;;;;;;;;;;23.29;27.95;96112.19;5039570;28;20421;-61
2022/06/28 09:52:48;;;;;;;;;;;;;;;23.19;27.31;96107.44;5040053;28;19943;-61
2022/06/28 09:55:14;;;;;;;;;;;;;;;22.56;27.54;96102.84;5040284;28;19981;-61
2022/06/28 09:57:39;;;;;;;;;;;;;;;22.60;27.59;96101.28;5038227;28;19958;-61
2022/06/28 10:00:05;;;;;;;;;;;;;;;22.99;29.17;96097.03;5039005;28;20372;-61
2022/06/28 10:02:30;;;;;;;;;;;;;;;23.38;26.59;96093.56;5034805;28;19978;-61
2022/06/28 10:05:00;;;;;;;;;;;;;;;22.44;27.35;96099.31;5032843;28;20147;-61
2022/06/28 10:07:25;;;;;;;;;;;;;;;21.57;29.06;96100.84;5036872;28;20281;-61
2022/06/28 10:09:50;;;;;;;;;;;;;;;22.76;28.28;96094.22;5038663;28;19948;-61
2022/06/28 10:15:02;;;;;;;;;;;;;;;22.07;28.14;96106.78;5039245;28;20173;-61
2022/06/28 10:17:29;;;;;;;;;;;;;;;22.49;29.59;96102.13;5033498;28;20003;-61
2022/06/28 10:19:56;;;;;;;;;;;;;;;22.86;28.39;96096.28;5037857;28;19954;-62
2022/06/28 10:22:21;;;;;;;;;;;;;;;23.17;28.17;96095.97;5027042;28;19976;-62
2022/06/28 10:24:56;;;;;;;;;;;;;;;23.71;27.73;96096.47;5036524;28;19971;-62
2022/06/28 10:27:22;;;;;;;;;;;;;;;23.85;27.35;96092.34;5038947;28;19956;-62
2022/06/28 10:30:07;;;;;;;;;;;;;;;23.96;26.97;96081.59;5037907;28;20402;-63
2022/06/28 10:32:45;;;;;;;;;;;;;;;24.07;27.36;96083.34;5036585;28;20787;-62
2022/06/28 10:35:29;;;;;;;;;;;;;;;24.18;27.32;96076.13;5026508;28;19948;-62
2022/06/28 10:38:10;;;;;;;;;;;;;;;24.39;26.74;96071.75;5037925;28;20060;-62
2022/06/28 10:40:41;;;;;;;;;;;;;;;23.50;26.45;96074.47;5026925;28;20446;-59
2022/06/28 10:43:06;;;;;;;;;;;;;;;23.60;27.21;96077.31;5033258;28;19961;-61
2022/06/28 10:45:55;;;;;;;;;;;;;;;23.89;27.10;96071.72;5033175;28;19966;-61
2022/06/28 10:48:20;;;;;;;;;;;;;;;23.36;28.06;96077.53;5021448;28;19960;-61
2022/06/28 10:50:55;;;;;;;;;;;;;;;23.79;27.58;96077.03;5034965;28;20106;-61
2022/06/28 10:53:20;;;;;;;;;;;;;;;24.63;26.94;96074.16;5032646;28;19957;-61
2022/06/28 10:56:05;;;;;;;;;;;;;;;25.34;26.63;96076.88;5040592;28;19986;-62
2022/06/28 10:58:31;;;;;;;;;;;;;;;25.86;25.22;96083.47;5031075;28;19958;-61
2022/06/28 11:00:56;;;;;;;;;;;;;;;26.33;24.66;96080.09;5036611;28;19963;-61
2022/06/28 11:03:21;;;;;;;;;;;;;;;27.27;21.53;96075.53;5047015;28;20087;-61
2022/06/28 11:05:48;;;;;;;;;;;;;;;27.50;22.43;96068.66;5035766;28;19927;-61
2022/06/28 11:08:34;;;;;;;;;;;;;;;27.49;22.12;96058.81;5035967;28;20317;-61
2022/06/28 11:11:00;;;;;;;;;;;;;;;26.26;22.29;96074.06;5034119;28;20373;-61
2022/06/28 11:13:25;;;;;;;;;;;;;;;26.72;23.65;96067.91;5037921;28;19958;-60
2022/06/28 11:15:50;;;;;;;;;;;;;;;27.11;23.11;96061.91;5035497;28;20023;-61
2022/06/28 11:18:20;;;;;;;;;;;;;;;27.76;22.12;96068.59;5034651;28;19940;-62
2022/06/28 11:20:45;;;;;;;;;;;;;;;28.13;22.41;96062.97;5030416;28;19936;-61
2022/06/28 11:23:30;;;;;;;;;;;;;;;28.48;21.28;96063.06;5031304;28;19924;-61
2022/06/28 11:28:55;;;;;;;;;;;;;;;28.56;20.86;96047.94;5036487;28;20324;-62
2022/06/28 11:31:21;;;;;;;;;;;;;;;28.85;21.02;96044.47;5032623;28;19929;-62
2022/06/28 11:33:46;;;;;;;;;;;;;;;29.21;20.30;96041.44;5037953;28;19932;-62
2022/06/28 11:36:33;;;;;;;;;;;;;;;29.66;20.25;96032.16;5032397;28;20456;-62
2022/06/28 11:39:15;;;;;;;;;;;;;;;29.59;19.58;96042.66;5035026;28;20007;-62
2022/06/28 11:41:45;;;;;;;;;;;;;;;29.26;19.36;96033.13;5025601;28;19990;-62
2022/06/28 11:44:10;;;;;;;;;;;;;;;28.67;20.16;96027.63;5034579;28;20382;-63
2022/06/28 11:46:36;;;;;;;;;;;;;;;28.26;19.56;96020.50;5032379;28;20013;-62
2022/06/28 11:49:01;;;;;;;;;;;;;;;28.00;20.76;96020.63;5023363;28;20389;-62
2022/06/28 11:51:30;;;;;;;;;;;;;;;27.92;20.74;96026.69;5034280;28;19963;-62
2022/06/28 11:53:56;;;;;;;;;;;;;;;28.01;21.59;96014.88;5040035;28;19964;-63
2022/06/28 11:56:21;;;;;;;;;;;;;;;27.72;21.38;96015.56;5027138;28;20390;-63
2022/06/28 11:58:46;;;;;;;;;;;;;;;27.62;21.58;96010.09;5033404;28;19971;-62
2022/06/28 12:01:21;;;;;;;;;;;;;;;27.54;21.84;96016.16;5035740;28;19944;-62
2022/06/28 12:03:46;;;;;;;;;;;;;;;27.51;22.32;96010.16;5037756;28;19921;-62
2022/06/28 12:06:22;;;;;;;;;;;;;;;27.51;21.47;96006.59;5037489;28;20444;-64
2022/06/28 12:09:03;;;;;;;;;;;;;;;27.40;21.14;96003.09;5033998;28;19936;-62
2022/06/28 12:11:32;;;;;;;;;;;;;;;27.53;21.58;96007.13;5037946;28;20353;-62
2022/06/28 12:13:57;;;;;;;;;;;;;;;27.47;20.92;96002.78;5036645;28;19933;-63
2022/06/28 12:16:23;;;;;;;;;;;;;;;27.31;22.87;95997.38;5038248;28;19942;-62
2022/06/28 12:18:52;;;;;;;;;;;;;;;27.25;21.51;95993.84;5032796;28;20656;-63
2022/06/28 12:21:17;;;;;;;;;;;;;;;27.15;22.50;95995.78;5037311;28;20321;-62
2022/06/28 12:23:53;;;;;;;;;;;;;;;26.74;21.81;95992.81;5037671;28;19928;-62
2022/06/28 12:26:19;;;;;;;;;;;;;;;26.56;22.77;95982.41;5029872;28;19934;-62
2022/06/28 12:28:44;;;;;;;;;;;;;;;26.56;23.08;95986.00;5029764;28;19929;-63
2022/06/28 12:31:09;;;;;;;;;;;;;;;26.59;22.88;95982.72;5029482;28;19960;-62
2022/06/28 12:33:34;;;;;;;;;;;;;;;26.89;22.42;95985.72;5037433;28;19934;-63
2022/06/28 12:36:00;;;;;;;;;;;;;;;27.15;22.93;95979.41;5030232;28;20211;-63
2022/06/28 12:38:25;;;;;;;;;;;;;;;26.99;22.37;95976.69;5036746;28;19929;-62
2022/06/28 12:40:50;;;;;;;;;;;;;;;27.03;22.63;95968.72;5038444;28;19975;-62
2022/06/28 12:43:16;;;;;;;;;;;;;;;27.25;22.21;95969.25;5041129;28;19995;-63
2022/06/28 12:45:41;;;;;;;;;;;;;;;27.38;21.64;95972.47;5043448;28;20028;-61
2022/06/28 12:48:07;;;;;;;;;;;;;;;27.58;21.67;95968.03;5044163;28;20064;-62
2022/06/28 12:50:32;;;;;;;;;;;;;;;27.75;18.80;95965.78;5038654;28;19998;-62
2022/06/28 12:52:57;;;;;;;;;;;;;;;27.69;19.14;95961.44;5033513;28;19973;-62
2022/06/28 12:55:23;;;;;;;;;;;;;;;27.97;20.17;95970.03;5038419;28;19931;-62
2022/06/28 12:57:48;;;;;;;;;;;;;;;28.21;21.04;95969.34;5040963;28;20206;-62